createdAt,value
2022-09-28T00:01:43.334Z,93.17
2022-09-28T00:07:45.316Z,93.32
2022-09-28T00:13:52.380Z,92.33
2022-09-28T00:19:55.829Z,93.62
2022-09-28T00:26:05.662Z,94.10
2022-09-28T00:32:11.712Z,94.00
2022-09-28T00:38:16.681Z,93.93
2022-09-28T00:44:36.136Z,93.53
2022-09-28T00:50:38.845Z,93.91
2022-09-28T00:56:47.749Z,94.03
2022-09-28T01:02:50.123Z,93.80
2022-09-28T01:08:53.522Z,94.75
2022-09-28T01:14:57.559Z,94.34
2022-09-28T01:21:20.650Z,94.71
2022-09-28T01:27:32.064Z,94.75
2022-09-28T01:33:44.260Z,94.69
2022-09-28T01:39:50.154Z,94.81
2022-09-28T01:46:01.928Z,94.29
2022-09-28T01:52:15.668Z,95.25
2022-09-28T01:58:49.592Z,94.64
2022-09-28T02:05:19.573Z,95.11
2022-09-28T02:11:23.631Z,95.13
2022-09-28T02:17:25.619Z,94.98
2022-09-28T02:23:31.106Z,95.22
2022-09-28T02:29:33.013Z,95.13
2022-09-28T02:35:35.623Z,95.65
2022-09-28T02:41:51.856Z,95.96
2022-09-28T02:48:44.767Z,95.96
2022-09-28T02:55:19.169Z,97.28
2022-09-28T03:01:29.837Z,96.86
2022-09-28T03:07:50.786Z,97.69
2022-09-28T03:13:53.918Z,98.18
2022-09-28T03:19:55.833Z,98.26
2022-09-28T03:25:57.870Z,97.73
2022-09-28T03:31:59.828Z,98.63
2022-09-28T03:38:01.762Z,98.54
2022-09-28T03:44:03.960Z,98.32
2022-09-28T03:50:06.909Z,99.08
2022-09-28T03:56:14.219Z,99.51
2022-09-28T04:02:16.186Z,100.00
2022-09-28T04:08:18.772Z,100.00
2022-09-28T04:14:20.728Z,100.00
2022-09-28T04:20:22.701Z,100.00
2022-09-28T04:26:27.016Z,100.00
2022-09-28T04:32:28.922Z,100.00
2022-09-28T04:38:51.378Z,100.00
2022-09-28T04:44:52.798Z,100.00
2022-09-28T04:51:04.715Z,100.00
2022-09-28T04:57:06.774Z,100.00
2022-09-28T05:03:08.671Z,100.00
2022-09-28T05:09:10.702Z,100.00
2022-09-28T05:15:12.638Z,100.00
2022-09-28T05:21:15.707Z,100.00
2022-09-28T05:27:17.860Z,100.00
2022-09-28T05:33:19.686Z,100.00
2022-09-28T05:39:21.627Z,100.00
2022-09-28T05:45:23.536Z,100.00
2022-09-28T05:51:25.544Z,100.00
2022-09-28T05:57:27.501Z,100.00
2022-09-28T06:03:29.432Z,100.00
2022-09-28T06:09:31.426Z,100.00
2022-09-28T06:15:36.255Z,100.00
2022-09-28T06:21:38.385Z,100.00
2022-09-28T06:27:43.733Z,99.23
2022-09-28T06:33:45.662Z,99.29
2022-09-28T06:53:39.359Z,100.00
2022-09-28T06:59:56.514Z,99.27
2022-09-28T07:05:58.658Z,99.30
2022-09-28T07:12:00.724Z,100.00
2022-09-28T07:18:05.376Z,97.86
2022-09-28T07:24:08.141Z,95.91
2022-09-28T07:30:10.922Z,95.47
2022-09-28T07:36:14.189Z,95.01
2022-09-28T07:42:16.666Z,94.58
2022-09-28T07:48:19.330Z,96.12
2022-09-28T07:54:21.240Z,94.28
2022-09-28T08:00:23.287Z,95.49
2022-09-28T08:06:45.011Z,94.56
2022-09-28T08:13:06.430Z,93.05
2022-09-28T08:19:10.591Z,91.23
2022-09-28T08:25:12.574Z,88.63
2022-09-28T08:31:14.647Z,88.12
2022-09-28T08:37:16.758Z,87.39
2022-09-28T08:43:49.732Z,85.63
2022-09-28T08:49:51.791Z,87.82
2022-09-28T08:55:54.103Z,85.13
2022-09-28T09:02:00.903Z,87.28
2022-09-28T09:08:18.714Z,87.57
2022-09-28T09:14:50.678Z,86.36
2022-09-28T09:21:04.704Z,83.77
2022-09-28T09:27:32.708Z,81.33
2022-09-28T09:34:16.234Z,81.09
2022-09-28T09:40:53.076Z,81.80
2022-09-28T09:53:37.610Z,81.20
2022-09-28T09:59:44.482Z,80.40
2022-09-28T10:05:56.201Z,78.80
2022-09-28T10:12:12.099Z,77.97
2022-09-28T10:18:21.446Z,76.84
2022-09-28T10:25:10.951Z,77.98
2022-09-28T10:31:47.400Z,76.94
2022-09-28T10:37:57.929Z,76.41
2022-09-28T10:44:23.575Z,76.30
2022-09-28T10:50:39.597Z,76.38
2022-09-28T10:56:41.952Z,75.51
2022-09-28T11:02:46.093Z,76.23
2022-09-28T11:08:50.132Z,76.61
2022-09-28T11:15:05.569Z,76.50
2022-09-28T11:21:22.902Z,76.32
2022-09-28T11:27:36.558Z,78.43
2022-09-28T11:33:42.251Z,80.08
2022-09-28T11:40:15.144Z,80.54
2022-09-28T11:53:04.632Z,85.97
2022-09-28T11:59:24.069Z,83.60
2022-09-28T12:05:33.885Z,84.88
2022-09-28T12:11:39.516Z,75.61
2022-09-28T12:18:08.616Z,70.28
2022-09-28T12:24:23.784Z,71.48
2022-09-28T12:30:28.155Z,62.54
2022-09-28T12:36:48.297Z,50.68
2022-09-28T12:43:09.610Z,51.41
2022-09-28T12:50:37.713Z,56.30
2022-09-28T12:56:40.167Z,63.43
2022-09-28T13:03:35.458Z,69.04
2022-09-28T13:10:23.736Z,73.50
2022-09-28T13:16:34.728Z,74.82
2022-09-28T13:23:10.511Z,71.17
2022-09-28T13:29:19.312Z,73.17
2022-09-28T13:35:21.718Z,75.20
2022-09-28T13:41:36.184Z,80.22
2022-09-28T13:48:14.621Z,81.75
2022-09-28T13:55:14.138Z,81.73
2022-09-28T14:01:40.191Z,83.96
2022-09-28T14:08:11.156Z,81.63
2022-09-28T14:14:16.066Z,80.52
2022-09-28T14:20:23.166Z,79.10
2022-09-28T14:26:41.785Z,75.02
2022-09-28T14:32:57.551Z,67.16
2022-09-28T14:39:18.426Z,64.64
2022-09-28T14:45:34.726Z,69.01
2022-09-28T14:51:48.404Z,73.34
2022-09-28T14:57:57.931Z,77.13
2022-09-28T15:04:04.657Z,79.62
2022-09-28T15:10:31.418Z,78.53
2022-09-28T15:16:33.918Z,75.39
2022-09-28T15:22:37.650Z,74.92
2022-09-28T15:28:44.976Z,76.00
2022-09-28T15:34:54.475Z,77.39
2022-09-28T15:40:57.462Z,78.19
2022-09-28T15:47:16.791Z,73.09
2022-09-28T15:53:19.134Z,74.92
2022-09-28T16:06:10.744Z,75.88
2022-09-28T16:18:33.730Z,78.40
2022-09-28T16:24:38.412Z,79.87
2022-09-28T16:31:07.590Z,81.00
2022-09-28T16:37:33.834Z,82.66
2022-09-28T16:43:36.540Z,83.60
2022-09-28T16:49:39.943Z,84.16
2022-09-28T17:08:48.624Z,85.77
2022-09-28T17:14:50.574Z,86.33
2022-09-28T17:20:55.920Z,86.04
2022-09-28T17:26:58.009Z,87.57
2022-09-28T17:33:01.623Z,87.67
2022-09-28T17:39:04.176Z,87.91
2022-09-28T17:45:06.811Z,88.22
2022-09-28T17:51:09.373Z,88.49
2022-09-28T17:57:11.474Z,89.13
2022-09-28T18:03:23.170Z,89.16
2022-09-28T18:09:25.464Z,89.22
2022-09-28T18:15:27.674Z,89.04
2022-09-28T18:21:34.457Z,88.71
2022-09-28T18:27:37.020Z,88.33
2022-09-28T18:33:49.853Z,88.46
2022-09-28T18:39:52.887Z,89.54
2022-09-28T18:45:56.255Z,89.82
2022-09-28T18:51:58.923Z,89.85
2022-09-28T18:58:32.225Z,90.40
2022-09-28T19:04:39.891Z,91.17
2022-09-28T19:10:48.590Z,91.02
2022-09-28T19:16:59.582Z,91.47
2022-09-28T19:23:02.208Z,90.90
2022-09-28T19:29:04.139Z,91.66
2022-09-28T19:35:10.175Z,92.09
2022-09-28T19:41:40.768Z,92.04
2022-09-28T19:47:49.364Z,92.12
2022-09-28T19:53:51.266Z,93.28
2022-09-28T20:00:04.223Z,93.45
2022-09-28T20:06:16.441Z,93.94
2022-09-28T20:12:19.298Z,94.14
2022-09-28T20:18:22.253Z,94.74
2022-09-28T20:24:29.577Z,94.76
2022-09-28T20:30:31.927Z,94.70
2022-09-28T20:37:38.293Z,94.74
2022-09-28T20:44:05.367Z,95.27
2022-09-28T20:50:08.508Z,94.33
2022-09-28T20:56:26.479Z,95.50
2022-09-28T21:02:28.419Z,96.11
2022-09-28T21:08:31.781Z,95.23
2022-09-28T21:14:34.988Z,95.13
2022-09-28T21:20:48.769Z,96.34
2022-09-28T21:27:06.810Z,95.87
2022-09-28T21:33:30.082Z,95.82
2022-09-28T21:39:32.075Z,96.30
2022-09-28T21:45:38.334Z,96.84
2022-09-28T21:51:43.005Z,96.99
2022-09-28T21:57:50.777Z,97.16
2022-09-28T22:03:57.014Z,98.21
2022-09-28T22:09:58.937Z,98.58
2022-09-28T22:16:01.717Z,99.16
2022-09-28T22:22:03.646Z,99.23
2022-09-28T22:28:08.121Z,99.43
2022-09-28T22:34:11.966Z,99.72
2022-09-28T22:40:21.295Z,100.00
2022-09-28T22:46:27.816Z,100.00
2022-09-28T22:52:32.580Z,100.00
2022-09-28T22:58:35.749Z,100.00
2022-09-28T23:04:37.770Z,100.00
2022-09-28T23:10:39.667Z,100.00
2022-09-28T23:16:41.714Z,100.00
2022-09-28T23:22:47.888Z,100.00
2022-09-28T23:28:49.893Z,100.00
2022-09-28T23:34:51.789Z,100.00
2022-09-28T23:40:53.768Z,100.00
2022-09-28T23:47:04.742Z,100.00
2022-09-28T23:59:28.153Z,100.00
